Time;durP1;ratioP1;P1;durP2;ratioP2;P2;SDS_P1;SDS_P2;PMS_P1;PMS_P2;Temp;Humidity;BMP_temperature;BMP_pressure;BME280_temperature;BME280_humidity;BME280_pressure;Samples;Min_cycle;Max_cycle;Signal;HPM_P1;HPM_P2
2022/09/23 05:40:44;;;;;;;1.20;1.10;;;;;;;20.73;46.76;99488.52;1921294;72;38381;-82
2022/09/23 05:43:34;;;;;;;9.10;5.17;;;;;;;21.08;46.15;99491.08;1881012;73;28078;-77
2022/09/23 05:46:28;;;;;;;1.07;1.07;;;;;;;21.83;44.94;99490.67;1882311;75;28247;-73
2022/09/23 05:49:17;;;;;;;3.85;2.75;;;;;;;22.49;43.94;99484.31;1887098;73;28074;-73
2022/09/23 05:52:06;;;;;;;6.80;5.17;;;;;;;23.03;42.89;99482.71;1875083;75;28035;-72
2022/09/23 05:54:54;;;;;;;6.55;5.30;;;;;;;23.45;41.52;99482.06;1883268;74;28127;-71
2022/09/23 05:57:43;;;;;;;5.35;4.33;;;;;;;23.82;41.08;99489.44;1882822;73;28112;-75
2022/09/23 06:00:31;;;;;;;2.85;2.65;;;;;;;24.10;40.46;99497.73;1883215;75;28159;-70
2022/09/23 06:03:22;;;;;;;2.72;2.52;;;;;;;24.33;39.86;99492.67;1848677;76;28264;-72
2022/09/23 06:06:21;;;;;;;2.47;2.25;;;;;;;24.52;39.37;99489.48;1851469;76;28265;-71
2022/09/23 06:09:08;;;;;;;1.87;1.77;;;;;;;24.66;38.81;99488.09;1853032;76;28281;-72
2022/09/23 06:11:57;;;;;;;2.17;1.80;;;;;;;24.78;38.42;99492.70;1857766;75;28097;-70
2022/09/23 06:14:45;;;;;;;1.72;1.62;;;;;;;24.91;38.13;99490.45;1860164;76;28269;-71
2022/09/23 06:17:35;;;;;;;3.80;1.60;;;;;;;25.02;37.77;99490.89;1854914;76;28133;-71
2022/09/23 06:20:23;;;;;;;1.70;1.60;;;;;;;25.09;37.43;99486.59;1854308;75;28251;-70
2022/09/23 06:23:12;;;;;;;1.40;1.30;;;;;;;25.12;37.18;99488.86;1852664;76;28231;-70
2022/09/23 06:26:06;;;;;;;1.52;1.42;;;;;;;25.16;36.91;99486.72;1849325;75;28238;-71
2022/09/23 06:28:55;;;;;;;1.70;1.60;;;;;;;25.21;36.73;99484.59;1856648;76;28080;-70
2022/09/23 06:31:43;;;;;;;1.53;1.43;;;;;;;25.25;36.53;99483.83;1857984;75;28272;-70
2022/09/23 06:34:31;;;;;;;2.40;1.22;;;;;;;25.29;36.43;99489.67;1860916;76;28093;-70
2022/09/23 06:37:20;;;;;;;1.50;1.40;;;;;;;25.31;36.30;99490.25;1849549;76;28178;-71
2022/09/23 06:40:09;;;;;;;1.37;1.27;;;;;;;25.34;36.28;99492.51;1857038;75;28235;-71
2022/09/23 06:43:00;;;;;;;1.67;1.30;;;;;;;25.37;36.26;99491.98;1863733;75;28677;-69
2022/09/23 06:45:49;;;;;;;1.20;1.20;;;;;;;25.39;36.21;99496.71;1858628;75;28422;-70
2022/09/23 06:48:40;;;;;;;1.50;1.40;;;;;;;25.39;36.19;99500.84;1862148;75;28251;-70
2022/09/23 06:51:28;;;;;;;1.30;1.30;;;;;;;25.42;36.12;99497.55;1846231;75;28286;-70
2022/09/23 06:54:16;;;;;;;1.35;1.25;;;;;;;25.41;36.06;99495.34;1849912;76;28027;-71
2022/09/23 06:57:05;;;;;;;1.17;1.17;;;;;;;25.47;35.91;99496.30;1843298;76;28289;-71
2022/09/23 06:59:53;;;;;;;1.70;1.30;;;;;;;25.49;35.85;99494.11;1854860;75;28298;-72
2022/09/23 07:02:43;;;;;;;2.60;1.10;;;;;;;25.53;35.88;99499.42;1841955;76;28270;-72
2022/09/23 07:05:34;;;;;;;1.05;1.05;;;;;;;25.52;35.86;99493.62;1855368;75;28642;-73
2022/09/23 07:08:27;;;;;;;1.40;1.30;;;;;;;25.49;35.76;99493.28;1834367;76;28387;-68
2022/09/23 07:11:18;;;;;;;1.70;1.20;;;;;;;25.53;35.60;99499.42;1767572;78;28303;-68
2022/09/23 07:14:06;;;;;;;1.17;1.07;;;;;;;25.51;35.54;99501.56;1862361;75;28044;-67
2022/09/23 07:16:54;;;;;;;1.30;1.20;;;;;;;25.51;35.42;99497.44;1852431;75;31232;-67
2022/09/23 07:19:43;;;;;;;1.12;1.00;;;;;;;25.47;35.39;99499.58;1870443;75;28186;-67
2022/09/23 07:22:33;;;;;;;1.20;1.20;;;;;;;25.46;35.31;99497.39;1859939;75;28235;-68
2022/09/23 07:25:23;;;;;;;1.50;1.40;;;;;;;25.47;35.26;99496.30;1843476;76;28334;-68
2022/09/23 07:28:12;;;;;;;1.47;1.20;;;;;;;25.44;35.21;99494.04;1853107;75;28201;-67
2022/09/23 07:31:07;;;;;;;2.33;1.22;;;;;;;25.46;35.16;99495.18;1856044;75;28111;-68
2022/09/23 07:33:57;;;;;;;1.20;1.10;;;;;;;25.46;35.09;99500.14;1853605;76;28267;-69
2022/09/23 07:36:46;;;;;;;2.05;1.10;;;;;;;25.47;35.12;99507.83;1824803;75;28748;-68
2022/09/23 07:39:35;;;;;;;1.00;1.00;;;;;;;25.49;35.30;99509.24;1844213;75;28149;-68
2022/09/23 07:42:24;;;;;;;1.10;1.10;;;;;;;25.51;35.21;99513.94;1851928;76;28448;-68
2022/09/23 07:45:12;;;;;;;1.30;1.20;;;;;;;25.53;35.20;99513.17;1834841;76;28348;-68
2022/09/23 07:48:02;;;;;;;2.30;1.27;;;;;;;25.54;35.43;99511.23;1860357;76;28259;-68
2022/09/23 07:50:51;;;;;;;1.40;1.30;;;;;;;25.56;35.52;99509.89;1835744;75;28219;-68
2022/09/23 07:53:39;;;;;;;2.00;1.47;;;;;;;25.58;35.56;99509.09;1845343;76;28211;-69
2022/09/23 07:56:30;;;;;;;1.55;1.20;;;;;;;25.60;35.59;99515.73;1863843;75;28284;-68
2022/09/23 07:59:19;;;;;;;1.30;1.20;;;;;;;25.61;35.59;99514.09;1836070;75;28023;-69
2022/09/23 08:02:08;;;;;;;1.25;1.17;;;;;;;25.63;35.58;99514.67;1844350;76;28284;-67
2022/09/23 08:04:59;;;;;;;1.20;1.10;;;;;;;25.64;35.51;99514.14;1847455;75;28269;-69
2022/09/23 08:07:48;;;;;;;1.25;1.17;;;;;;;25.64;35.50;99511.38;1848227;76;28249;-68
2022/09/23 08:10:37;;;;;;;1.30;1.20;;;;;;;25.63;35.65;99503.66;1851681;75;28219;-69
2022/09/23 08:13:29;;;;;;;1.77;1.40;;;;;;;25.63;35.79;99507.80;1858563;75;28192;-69
2022/09/23 08:16:18;;;;;;;1.10;1.10;;;;;;;25.65;35.86;99504.24;1846501;75;28347;-70
2022/09/23 08:19:07;;;;;;;1.40;1.10;;;;;;;25.63;36.01;99505.05;1847461;75;28275;-69
2022/09/23 08:21:56;;;;;;;2.00;1.10;;;;;;;25.62;35.83;99489.64;1861317;75;29046;-70
2022/09/23 08:24:45;;;;;;;2.40;1.20;;;;;;;25.67;35.95;99497.94;1849028;76;28256;-70
2022/09/23 08:27:33;;;;;;;2.27;1.10;;;;;;;25.65;35.89;99497.93;1851616;76;28211;-70
2022/09/23 08:30:22;;;;;;;1.20;1.10;;;;;;;25.68;35.92;99494.65;1851991;75;28673;-69
2022/09/23 10:27:54;;;;;;;1.27;1.15;;;;;;;20.97;45.21;99375.73;1925936;72;28049;-68
2022/09/23 10:30:46;;;;;;;1.10;1.10;;;;;;;21.30;44.91;99372.14;1868937;76;28149;-74
2022/09/23 10:33:35;;;;;;;1.20;1.20;;;;;;;22.08;43.88;99360.64;1890763;75;28032;-74
2022/09/23 10:36:24;;;;;;;1.20;1.10;;;;;;;22.75;42.78;99356.59;1886030;75;28120;-72
2022/09/23 10:49:17;;;;;;;4.60;2.15;;;;;;;24.37;39.93;99335.44;1899126;73;28129;-70
2022/09/23 10:52:21;;;;;;;3.15;1.90;;;;;;;24.65;39.96;99331.75;1888086;75;28147;-70
2022/09/23 10:55:40;;;;;;;4.60;1.72;;;;;;;24.81;39.22;99325.42;1868289;76;28125;-68
2022/09/23 10:59:00;;;;;;;1.57;1.47;;;;;;;24.99;38.49;99322.41;1889768;75;28079;-68
2022/09/23 11:02:04;;;;;;;1.25;1.25;;;;;;;25.11;37.57;99314.03;1880250;75;28162;-69
2022/09/23 11:05:01;;;;;;;2.37;1.40;;;;;;;25.23;36.80;99314.72;1873191;73;28511;-70
2022/09/23 11:07:56;;;;;;;1.50;1.40;;;;;;;25.32;36.31;99311.26;1879382;75;28153;-69
2022/09/23 11:10:50;;;;;;;1.20;1.20;;;;;;;25.44;35.84;99307.03;1908046;73;28094;-70
2022/09/23 11:14:02;;;;;;;1.50;1.40;;;;;;;25.52;35.39;99298.33;1906958;73;28069;-69
2022/09/23 11:17:02;;;;;;;1.30;1.20;;;;;;;25.58;35.04;99290.98;1885141;73;28114;-68
2022/09/23 11:20:11;;;;;;;1.40;1.30;;;;;;;25.63;34.72;99285.50;1895577;73;28096;-68
2022/09/23 11:23:14;;;;;;;1.30;1.20;;;;;;;25.70;34.31;99280.08;1913744;73;28137;-68
2022/09/23 11:26:18;;;;;;;1.50;1.20;;;;;;;25.74;34.12;99277.66;1900786;73;28172;-69
2022/09/23 11:29:15;;;;;;;1.23;1.23;;;;;;;25.76;33.92;99270.80;1885608;73;28095;-69
2022/09/23 11:32:21;;;;;;;1.30;1.30;;;;;;;25.81;33.79;99270.83;1873957;75;28251;-69
2022/09/23 11:35:34;;;;;;;1.20;1.20;;;;;;;25.86;33.63;99265.38;1890967;75;28033;-68
2022/09/23 11:38:35;;;;;;;1.20;1.10;;;;;;;25.90;33.44;99258.28;1903849;73;28145;-68
2022/09/23 11:41:32;;;;;;;1.20;1.20;;;;;;;25.94;33.34;99254.44;1875813;75;28144;-68
